Time;durP1;ratioP1;P1;durP2;ratioP2;P2;SDS_P1;SDS_P2;PMS_P1;PMS_P2;Temp;Humidity;BMP_temperature;BMP_pressure;BME280_temperature;BME280_humidity;BME280_pressure;Samples;Min_cycle;Max_cycle;Signal;HPM_P1;HPM_P2
2022/05/14 00:02:24;;;;;;;16.00;4.40;;;13.50;99.90;;;;;;5226605;28;20193;-51
2022/05/14 00:04:55;;;;;;;11.13;4.17;;;13.40;99.90;;;;;;5234197;28;20606;-51
2022/05/14 00:07:26;;;;;;;5.73;3.23;;;13.40;99.90;;;;;;5229166;28;20260;-51
2022/05/14 00:09:56;;;;;;;3.57;3.30;;;13.40;99.90;;;;;;5230489;28;20482;-52
2022/05/14 00:15:16;;;;;;;4.60;3.93;;;13.30;99.90;;;;;;5236442;28;20213;-51
2022/05/14 00:17:47;;;;;;;16.67;3.43;;;13.30;99.90;;;;;;5237929;28;20446;-52
2022/05/14 00:20:18;;;;;;;8.10;3.90;;;13.30;99.90;;;;;;5242445;28;20428;-51
2022/05/14 00:22:49;;;;;;;10.17;3.50;;;13.20;99.90;;;;;;5231096;28;20524;-52
2022/05/14 00:25:20;;;;;;;3.47;3.17;;;13.20;99.90;;;;;;5225684;28;20198;-51
2022/05/14 00:27:51;;;;;;;4.87;2.70;;;13.20;99.90;;;;;;5235724;28;20226;-52
2022/05/14 00:30:25;;;;;;;5.60;3.27;;;13.30;99.90;;;;;;5240535;28;20433;-51
2022/05/14 00:32:55;;;;;;;3.47;3.17;;;13.30;99.90;;;;;;5215161;28;20449;-52
2022/05/14 00:35:27;;;;;;;4.30;3.50;;;13.30;99.90;;;;;;5234115;28;20480;-51
2022/05/14 00:37:57;;;;;;;5.10;3.10;;;13.30;99.90;;;;;;5234310;28;20198;-51
2022/05/14 00:40:32;;;;;;;11.30;3.50;;;13.30;99.90;;;;;;5233764;28;20521;-50
2022/05/14 00:43:03;;;;;;;6.53;3.60;;;13.20;99.90;;;;;;5228929;28;20265;-50
2022/05/14 00:45:37;;;;;;;9.53;4.13;;;13.20;99.90;;;;;;5222380;28;21017;-51
2022/05/14 00:48:11;;;;;;;3.20;3.00;;;13.20;99.90;;;;;;5240330;28;20198;-50
2022/05/14 00:50:50;;;;;;;4.50;2.87;;;13.20;99.90;;;;;;5230325;28;20787;-51
2022/05/14 00:53:31;;;;;;;3.93;2.67;;;13.20;99.90;;;;;;5233629;28;20439;-51
2022/05/14 00:56:06;;;;;;;7.70;3.13;;;13.10;99.90;;;;;;5216326;28;20460;-52
2022/05/14 00:59:04;;;;;;;3.40;3.17;;;13.10;99.90;;;;;;5242381;28;20478;-51
2022/05/14 01:01:36;;;;;;;4.20;3.20;;;13.10;99.90;;;;;;5230875;28;20461;-52
2022/05/14 01:04:07;;;;;;;4.97;3.00;;;13.20;99.90;;;;;;5228883;28;20854;-51
2022/05/14 01:06:41;;;;;;;7.13;3.90;;;13.30;99.90;;;;;;5230545;28;20438;-51
2022/05/14 01:09:12;;;;;;;5.40;3.77;;;13.40;99.90;;;;;;5226715;28;20297;-51
2022/05/14 01:11:42;;;;;;;14.47;3.87;;;13.40;99.90;;;;;;5226194;28;20425;-51
2022/05/14 01:14:13;;;;;;;10.40;3.23;;;13.50;99.90;;;;;;5214464;28;20642;-52
2022/05/14 01:16:44;;;;;;;4.67;3.27;;;13.50;99.90;;;;;;5213021;28;20195;-52
2022/05/14 01:19:14;;;;;;;4.93;3.90;;;13.60;99.90;;;;;;5242877;28;20685;-51
2022/05/14 01:22:02;;;;;;;8.40;3.70;;;13.60;99.90;;;;;;5228560;28;20518;-51
2022/05/14 01:27:40;;;;;;;13.67;3.63;;;13.70;99.90;;;;;;5214522;28;21019;-51
2022/05/14 01:30:11;;;;;;;5.03;3.40;;;13.70;99.90;;;;;;5238486;28;20420;-52
2022/05/14 01:32:44;;;;;;;3.70;2.77;;;13.70;99.90;;;;;;5223921;28;20184;-51
2022/05/14 01:35:17;;;;;;;7.83;3.10;;;13.70;99.90;;;;;;5227430;28;20206;-51
2022/05/14 01:37:47;;;;;;;3.57;3.00;;;13.80;99.90;;;;;;5224008;28;20504;-51
2022/05/14 01:40:18;;;;;;;6.30;3.10;;;13.70;99.90;;;;;;5231221;28;20840;-52
2022/05/14 01:42:48;;;;;;;4.67;3.60;;;13.70;99.90;;;;;;5220523;28;20278;-51
2022/05/14 01:45:19;;;;;;;4.33;3.40;;;13.70;99.90;;;;;;5235891;28;20197;-52
2022/05/14 01:47:49;;;;;;;5.00;3.20;;;13.70;99.90;;;;;;5236764;28;20214;-51
2022/05/14 01:50:21;;;;;;;6.13;2.50;;;13.70;99.90;;;;;;5220204;28;20276;-51
2022/05/14 01:52:52;;;;;;;4.00;2.90;;;13.80;99.90;;;;;;5232901;28;20201;-51
2022/05/14 01:55:22;;;;;;;6.50;3.60;;;13.80;99.90;;;;;;5228656;28;20463;-52
2022/05/14 01:57:53;;;;;;;2.60;2.50;;;13.70;99.90;;;;;;5229478;28;20569;-50
2022/05/14 02:00:23;;;;;;;3.43;3.00;;;13.80;99.90;;;;;;5244154;28;20220;-52
2022/05/14 02:02:54;;;;;;;5.57;2.90;;;13.80;99.90;;;;;;5226755;28;20270;-51
2022/05/14 02:05:24;;;;;;;6.37;3.43;;;13.80;99.90;;;;;;5224549;28;20190;-52
2022/05/14 02:07:55;;;;;;;6.27;3.17;;;13.80;99.90;;;;;;5229785;28;20206;-50
2022/05/14 02:10:25;;;;;;;4.50;2.70;;;13.70;99.90;;;;;;5224609;28;20200;-50
2022/05/14 02:12:57;;;;;;;8.17;3.80;;;13.60;99.90;;;;;;5235404;28;20605;-50
2022/05/14 02:15:28;;;;;;;6.27;2.40;;;13.60;99.90;;;;;;5235469;28;20194;-52
2022/05/14 02:17:58;;;;;;;3.53;3.00;;;13.60;99.90;;;;;;5225223;28;20998;-52
2022/05/14 02:20:29;;;;;;;4.93;3.03;;;13.50;99.90;;;;;;5230193;28;20185;-52
2022/05/14 02:23:00;;;;;;;4.50;3.37;;;13.50;99.90;;;;;;5234772;28;20626;-52
2022/05/14 02:25:30;;;;;;;7.93;3.43;;;13.50;99.90;;;;;;5238111;28;20256;-52
2022/05/14 02:28:01;;;;;;;6.00;3.57;;;13.50;99.90;;;;;;5232165;28;20215;-50
2022/05/14 02:30:31;;;;;;;6.53;3.17;;;13.50;99.90;;;;;;5236092;28;20179;-51
2022/05/14 02:33:02;;;;;;;7.73;4.70;;;13.50;99.90;;;;;;5235922;28;20186;-51
2022/05/14 02:35:33;;;;;;;3.93;3.43;;;13.50;99.90;;;;;;5222086;28;20258;-49
2022/05/14 02:38:04;;;;;;;5.73;2.83;;;13.60;99.90;;;;;;5207046;28;20203;-51
2022/05/14 02:40:35;;;;;;;7.63;3.80;;;13.50;99.90;;;;;;5225181;28;20262;-51
2022/05/14 02:43:05;;;;;;;3.80;3.00;;;13.60;99.90;;;;;;5222697;28;20922;-51
2022/05/14 02:45:37;;;;;;;2.67;2.40;;;13.60;99.90;;;;;;5221763;28;20219;-51
2022/05/14 02:48:10;;;;;;;10.57;3.50;;;13.60;99.90;;;;;;5227426;28;20228;-51
2022/05/14 02:50:41;;;;;;;4.47;3.03;;;13.50;99.90;;;;;;5246838;28;20799;-52
2022/05/14 02:53:12;;;;;;;5.07;2.77;;;13.50;99.90;;;;;;5237447;28;20432;-52
2022/05/14 02:55:42;;;;;;;3.23;2.57;;;13.40;99.90;;;;;;5240493;28;20494;-51
2022/05/14 02:59:06;;;;;;;7.43;2.67;;;13.50;99.90;;;;;;5229916;28;20199;-50
2022/05/14 03:01:05;;;;;;;2.93;2.73;;;13.50;99.90;;;;;;5227070;28;20622;-50
2022/05/14 03:03:36;;;;;;;4.80;2.60;;;13.50;99.90;;;;;;5237100;28;20429;-52
2022/05/14 03:06:07;;;;;;;18.77;3.23;;;13.50;99.90;;;;;;5231203;28;20479;-49
2022/05/14 03:08:37;;;;;;;3.70;2.80;;;13.50;99.90;;;;;;5226420;28;20245;-49
2022/05/14 03:11:08;;;;;;;5.17;2.93;;;13.40;99.90;;;;;;5238580;28;20464;-49
2022/05/14 03:13:39;;;;;;;6.83;3.27;;;13.30;99.90;;;;;;5236898;28;20186;-51
2022/05/14 03:16:09;;;;;;;3.87;2.67;;;13.20;99.90;;;;;;5238020;28;20222;-50
2022/05/14 03:18:41;;;;;;;3.90;2.73;;;13.10;99.90;;;;;;5222503;28;20210;-51
2022/05/14 03:21:11;;;;;;;5.30;2.97;;;13.00;99.90;;;;;;5237012;28;20541;-50
2022/05/14 03:23:42;;;;;;;2.93;2.80;;;12.90;99.90;;;;;;5242021;28;20470;-51
2022/05/14 03:26:12;;;;;;;4.90;2.43;;;12.80;99.90;;;;;;5242789;28;20599;-51
2022/05/14 03:28:43;;;;;;;3.07;2.77;;;12.80;99.90;;;;;;5239244;22;20227;-49
2022/05/14 03:31:13;;;;;;;6.03;2.97;;;12.70;99.90;;;;;;5228529;28;20175;-50
2022/05/14 03:33:44;;;;;;;4.40;3.13;;;12.70;99.90;;;;;;5210427;28;20645;-50
2022/05/14 03:36:15;;;;;;;10.03;3.40;;;12.70;99.90;;;;;;5228543;28;20210;-50
2022/05/14 03:38:45;;;;;;;3.40;2.67;;;12.70;99.90;;;;;;5228833;28;20202;-50
2022/05/14 03:41:20;;;;;;;5.03;2.73;;;12.70;99.90;;;;;;5228543;28;20193;-51
2022/05/14 03:43:51;;;;;;;10.73;3.37;;;12.70;99.90;;;;;;5226212;28;20653;-50
2022/05/14 03:46:21;;;;;;;5.03;2.97;;;12.70;99.90;;;;;;5210676;28;20433;-51
2022/05/14 03:48:52;;;;;;;4.00;3.10;;;12.60;99.90;;;;;;5227143;28;20202;-50
2022/05/14 03:51:22;;;;;;;5.93;2.50;;;12.70;99.90;;;;;;5221761;28;20660;-50
2022/05/14 03:53:54;;;;;;;3.53;2.57;;;12.70;99.90;;;;;;5227062;28;20203;-50
2022/05/14 03:56:24;;;;;;;3.50;3.30;;;12.70;99.90;;;;;;5210031;28;20211;-50
2022/05/14 03:58:55;;;;;;;6.43;3.30;;;12.70;99.90;;;;;;5227997;28;20476;-51
2022/05/14 04:01:25;;;;;;;7.83;3.63;;;12.70;99.90;;;;;;5227116;28;20175;-50
2022/05/14 04:03:56;;;;;;;6.03;3.30;;;12.70;99.90;;;;;;5227766;28;20179;-51
2022/05/14 04:06:27;;;;;;;4.00;2.70;;;12.80;99.90;;;;;;5210037;28;20235;-49
2022/05/14 04:08:58;;;;;;;4.00;3.07;;;12.80;99.90;;;;;;5216656;28;20215;-49
2022/05/14 04:11:28;;;;;;;7.80;3.10;;;12.90;99.90;;;;;;5223188;28;20825;-50
2022/05/14 04:13:59;;;;;;;6.63;3.23;;;12.90;99.90;;;;;;5228147;28;20524;-50
2022/05/14 04:16:30;;;;;;;10.10;3.70;;;13.00;99.90;;;;;;5228543;28;20206;-50
2022/05/14 04:19:00;;;;;;;6.13;3.40;;;13.00;99.90;;;;;;5201783;28;21014;-51
2022/05/14 04:21:32;;;;;;;5.73;3.27;;;13.10;99.90;;;;;;5229644;28;20179;-50
2022/05/14 04:24:03;;;;;;;8.23;2.97;;;13.20;99.90;;;;;;5228256;28;20662;-50
2022/05/14 04:26:34;;;;;;;8.90;2.70;;;13.30;99.90;;;;;;5229129;28;20452;-52
2022/05/14 04:29:04;;;;;;;11.23;3.60;;;13.40;99.90;;;;;;5219364;28;20264;-52
2022/05/14 04:31:35;;;;;;;9.87;3.13;;;13.40;99.90;;;;;;5228705;28;20190;-49
2022/05/14 04:34:06;;;;;;;5.23;2.70;;;13.50;99.90;;;;;;5228135;28;20575;-51
2022/05/14 04:36:37;;;;;;;3.50;2.70;;;13.50;99.90;;;;;;5225811;28;20214;-52
2022/05/14 04:39:07;;;;;;;5.23;2.87;;;13.60;99.90;;;;;;5227586;28;21035;-51
2022/05/14 04:41:38;;;;;;;4.43;3.07;;;13.70;99.90;;;;;;5193017;28;20190;-50
2022/05/14 04:44:09;;;;;;;7.37;2.97;;;13.80;99.90;;;;;;5227418;28;20279;-51
2022/05/14 04:46:39;;;;;;;2.93;2.30;;;14.00;99.90;;;;;;5228058;28;20198;-50
2022/05/14 04:49:10;;;;;;;5.67;3.40;;;14.20;99.90;;;;;;5227623;28;20203;-52
2022/05/14 04:51:40;;;;;;;3.57;2.83;;;14.80;99.90;;;;;;5228987;28;20189;-52
2022/05/14 04:54:11;;;;;;;2.60;2.40;;;16.10;99.90;;;;;;5209824;28;20194;-53
2022/05/14 04:56:42;;;;;;;3.60;1.93;;;17.80;93.30;;;;;;5226995;28;20221;-51
2022/05/14 04:59:14;;;;;;;2.10;2.00;;;19.60;75.60;;;;;;5206870;28;20683;-52
2022/05/14 05:04:34;;;;;;;5.60;2.50;;;22.20;54.00;;;;;;5226123;28;20817;-51
2022/05/14 05:07:05;;;;;;;4.20;2.37;;;23.10;50.10;;;;;;5221575;28;20571;-50
2022/05/14 05:09:35;;;;;;;2.50;2.30;;;23.90;46.70;;;;;;5227546;28;20945;-51
2022/05/14 05:12:07;;;;;;;3.10;2.33;;;24.50;45.60;;;;;;5226504;28;20178;-51
2022/05/14 05:14:37;;;;;;;7.03;1.90;;;25.20;42.90;;;;;;5208232;28;20238;-52
2022/05/14 05:17:08;;;;;;;2.33;2.17;;;25.60;41.80;;;;;;5212973;28;20465;-51
2022/05/14 05:19:39;;;;;;;2.03;1.83;;;26.10;40.30;;;;;;5227477;28;20577;-51
2022/05/14 05:22:10;;;;;;;5.67;2.40;;;26.30;39.10;;;;;;5227791;28;20459;-52
2022/05/14 05:24:40;;;;;;;9.77;3.00;;;26.70;38.30;;;;;;5210553;28;20187;-51
2022/05/14 05:27:11;;;;;;;3.80;2.40;;;27.10;36.90;;;;;;5227477;28;20193;-52
2022/05/14 05:29:41;;;;;;;3.53;2.73;;;27.30;36.60;;;;;;5226735;28;20194;-53
2022/05/14 05:32:12;;;;;;;6.60;2.60;;;27.70;36.10;;;;;;5209616;28;20189;-52
2022/05/14 05:34:43;;;;;;;9.30;2.10;;;27.90;35.50;;;;;;5228326;28;20700;-52
2022/05/14 05:37:13;;;;;;;18.03;3.10;;;28.20;35.10;;;;;;5210367;28;20754;-53
2022/05/14 05:39:44;;;;;;;8.93;2.63;;;28.30;34.40;;;;;;5228830;28;20171;-51
2022/05/14 05:42:14;;;;;;;3.80;2.33;;;28.10;34.60;;;;;;5227209;28;20181;-52
2022/05/14 05:44:45;;;;;;;5.43;2.47;;;27.90;34.20;;;;;;5227071;28;20187;-56
2022/05/14 05:47:15;;;;;;;5.03;2.80;;;28.30;33.90;;;;;;5209210;28;20182;-51
2022/05/14 05:49:46;;;;;;;4.57;2.27;;;28.10;33.60;;;;;;5209397;28;20191;-53
2022/05/14 05:52:16;;;;;;;3.20;2.10;;;28.90;33.70;;;;;;5216487;28;20182;-55
2022/05/14 05:57:39;;;;;;;8.33;2.53;;;29.60;31.80;;;;;;5233775;28;20201;-56
2022/05/14 06:00:13;;;;;;;2.30;1.87;;;30.00;31.10;;;;;;5233893;28;20440;-52
2022/05/14 06:02:44;;;;;;;2.50;2.23;;;30.30;31.00;;;;;;5212288;28;20439;-54
2022/05/14 06:05:15;;;;;;;9.10;2.07;;;30.10;30.40;;;;;;5208142;28;20523;-51
2022/05/14 06:07:46;;;;;;;2.73;2.43;;;27.70;32.70;;;;;;5229156;28;20256;-51
2022/05/14 06:10:18;;;;;;;10.83;2.87;;;25.30;36.20;;;;;;5214009;28;20548;-53
2022/05/14 06:12:49;;;;;;;7.60;2.50;;;23.20;39.40;;;;;;5233040;28;20191;-52
2022/05/14 06:15:20;;;;;;;7.53;3.00;;;21.70;42.60;;;;;;5230883;28;20457;-50
2022/05/14 06:17:51;;;;;;;7.17;2.90;;;20.40;44.30;;;;;;5230215;28;20230;-50
2022/05/14 06:20:22;;;;;;;4.90;2.93;;;19.20;46.60;;;;;;5231173;28;20468;-51
2022/05/14 06:22:52;;;;;;;9.80;3.10;;;18.40;48.70;;;;;;5230064;28;20546;-51
2022/05/14 06:25:23;;;;;;;7.60;2.70;;;17.50;50.90;;;;;;5230258;28;20626;-51
2022/05/14 06:27:53;;;;;;;4.73;3.00;;;16.90;52.70;;;;;;5212761;28;20222;-51
2022/05/14 06:30:24;;;;;;;4.73;2.93;;;16.60;53.90;;;;;;5229560;28;20186;-50
2022/05/14 06:33:04;;;;;;;10.10;2.83;;;16.50;55.00;;;;;;5230232;28;20190;-51
2022/05/14 06:35:36;;;;;;;8.40;2.80;;;16.50;55.90;;;;;;5230388;28;20214;-49
2022/05/14 06:38:07;;;;;;;8.87;3.50;;;16.90;55.90;;;;;;5228198;28;20472;-52
2022/05/14 06:40:37;;;;;;;7.57;2.23;;;17.40;55.50;;;;;;5212120;28;20433;-50
2022/05/14 06:43:08;;;;;;;12.00;2.93;;;18.20;54.30;;;;;;5229618;28;20183;-53
2022/05/14 06:45:39;;;;;;;6.40;2.77;;;18.40;52.90;;;;;;5212724;28;20199;-51
2022/05/14 06:48:10;;;;;;;5.13;2.87;;;18.40;53.20;;;;;;5228345;28;20526;-51
2022/05/14 06:50:45;;;;;;;4.60;3.20;;;18.20;53.80;;;;;;5204746;28;20664;-52
2022/05/14 06:53:17;;;;;;;11.93;3.13;;;17.90;54.50;;;;;;5228785;28;20433;-51
2022/05/14 06:55:52;;;;;;;8.87;3.13;;;17.90;55.40;;;;;;5228749;28;20469;-51
2022/05/14 06:58:26;;;;;;;12.17;3.00;;;17.60;56.00;;;;;;5209702;28;21007;-52
2022/05/14 07:00:57;;;;;;;8.50;2.97;;;17.80;56.70;;;;;;5229582;28;20417;-50
2022/05/14 07:09:10;;;;;;;6.63;3.40;;;18.50;54.80;;;;;;5227399;28;20474;-50
2022/05/14 07:11:43;;;;;;;14.27;3.13;;;18.30;55.80;;;;;;5209984;28;20863;-51
2022/05/14 07:14:18;;;;;;;8.47;3.40;;;18.00;56.80;;;;;;5227749;28;20820;-50
2022/05/14 07:16:50;;;;;;;9.73;3.40;;;17.70;57.60;;;;;;5194245;28;20461;-51
2022/05/14 07:19:21;;;;;;;9.20;3.10;;;18.00;58.10;;;;;;5224198;28;20536;-51
2022/05/14 07:21:53;;;;;;;8.53;2.60;;;18.20;57.80;;;;;;5228868;28;20418;-51
2022/05/14 07:24:28;;;;;;;14.33;4.00;;;18.70;57.40;;;;;;5227447;28;20441;-50
2022/05/14 07:27:03;;;;;;;5.80;3.07;;;18.40;56.60;;;;;;5197847;28;20448;-51
2022/05/14 07:29:35;;;;;;;5.60;3.30;;;18.30;57.60;;;;;;5227026;28;20469;-50
2022/05/14 07:32:10;;;;;;;6.03;3.03;;;18.30;58.00;;;;;;5228013;28;20498;-51
2022/05/14 07:34:42;;;;;;;17.63;3.73;;;18.60;57.70;;;;;;5226063;28;20433;-53
2022/05/14 07:37:30;;;;;;;6.53;2.83;;;18.80;57.30;;;;;;5228466;28;20428;-54
2022/05/14 07:40:05;;;;;;;8.33;3.17;;;19.00;56.90;;;;;;5216521;28;20464;-52
2022/05/14 07:42:45;;;;;;;14.10;3.50;;;19.50;56.60;;;;;;5224136;28;20445;-54
2022/05/14 07:45:21;;;;;;;4.80;2.73;;;19.50;55.80;;;;;;5227357;28;20437;-54
2022/05/14 07:47:55;;;;;;;7.80;3.50;;;19.70;56.00;;;;;;5209418;28;20484;-55
2022/05/14 07:50:26;;;;;;;10.57;3.10;;;19.90;55.70;;;;;;5221321;28;20436;-52
2022/05/14 07:52:57;;;;;;;17.53;4.20;;;20.00;54.90;;;;;;5207914;28;20961;-53
2022/05/14 07:55:28;;;;;;;8.30;3.43;;;20.10;54.60;;;;;;5207530;28;20221;-54
2022/05/14 07:57:58;;;;;;;6.80;3.40;;;19.90;54.80;;;;;;5227402;28;20430;-53
2022/05/14 08:00:32;;;;;;;12.27;3.20;;;19.40;55.40;;;;;;5225120;28;20643;-52
2022/05/14 08:03:04;;;;;;;4.73;3.70;;;19.30;56.20;;;;;;5225955;28;20198;-55
2022/05/14 08:05:35;;;;;;;5.63;2.90;;;19.30;56.20;;;;;;5225701;28;20498;-54
2022/05/14 08:08:06;;;;;;;16.60;3.60;;;19.40;56.30;;;;;;5202183;28;20458;-55
2022/05/14 08:10:37;;;;;;;6.80;3.10;;;19.50;56.20;;;;;;5207556;28;20596;-54
2022/05/14 08:13:13;;;;;;;11.10;2.97;;;19.50;56.10;;;;;;5209058;28;20651;-52
2022/05/14 08:15:46;;;;;;;9.20;2.97;;;19.20;56.40;;;;;;5204384;28;20257;-55
2022/05/14 08:18:17;;;;;;;8.10;3.00;;;19.30;57.00;;;;;;5213594;28;20584;-53
2022/05/14 08:20:50;;;;;;;7.57;3.37;;;19.30;55.90;;;;;;5207524;28;20429;-56
2022/05/14 08:26:11;;;;;;;8.63;3.60;;;19.10;56.30;;;;;;5223067;28;20441;-54
2022/05/14 08:28:42;;;;;;;6.17;3.07;;;18.70;57.50;;;;;;5206733;28;20469;-54
2022/05/14 08:31:12;;;;;;;9.17;3.43;;;18.70;57.60;;;;;;5212938;28;20233;-53
2022/05/14 08:33:43;;;;;;;9.63;3.93;;;18.70;57.80;;;;;;5205084;28;20257;-54
2022/05/14 08:36:13;;;;;;;4.53;3.03;;;18.70;57.60;;;;;;5215016;28;20225;-55
2022/05/14 08:38:44;;;;;;;4.93;2.97;;;18.60;58.40;;;;;;5220566;28;20294;-55
2022/05/14 08:41:15;;;;;;;3.70;3.30;;;18.90;58.40;;;;;;5228566;28;20183;-53
2022/05/14 08:43:51;;;;;;;6.93;3.13;;;19.30;57.80;;;;;;5194333;28;20186;-54
2022/05/14 08:46:24;;;;;;;8.93;3.50;;;19.60;56.60;;;;;;5219531;28;20437;-54
2022/05/14 08:49:05;;;;;;;12.73;3.30;;;19.70;55.60;;;;;;5205860;28;20456;-52
2022/05/14 08:51:42;;;;;;;12.33;3.07;;;19.90;55.00;;;;;;5212262;28;20440;-54
2022/05/14 08:54:13;;;;;;;11.87;4.03;;;20.60;54.00;;;;;;5224900;28;20476;-54
2022/05/14 08:56:59;;;;;;;9.00;3.33;;;21.20;52.50;;;;;;5223395;28;20489;-54
2022/05/14 08:59:36;;;;;;;10.33;3.40;;;21.90;51.00;;;;;;5220595;28;20551;-54
2022/05/14 09:02:17;;;;;;;17.50;3.43;;;22.20;50.10;;;;;;5207511;28;20425;-54
2022/05/14 09:04:49;;;;;;;5.07;3.03;;;22.50;49.30;;;;;;5207229;28;20762;-54
2022/05/14 09:07:20;;;;;;;7.70;2.90;;;22.80;48.50;;;;;;5226285;28;20897;-52
2022/05/14 09:09:53;;;;;;;5.50;2.93;;;23.10;47.70;;;;;;5218621;28;20443;-52
2022/05/14 09:12:30;;;;;;;6.50;3.50;;;23.20;46.80;;;;;;5189278;28;20721;-55
2022/05/14 09:15:05;;;;;;;6.30;2.93;;;22.80;47.00;;;;;;5198719;28;20468;-54
2022/05/14 09:17:36;;;;;;;14.63;3.37;;;22.70;46.80;;;;;;5205055;28;20456;-54
2022/05/14 09:20:07;;;;;;;6.03;3.00;;;22.70;47.20;;;;;;5223007;28;20445;-55
2022/05/14 09:22:44;;;;;;;12.83;2.90;;;22.60;46.30;;;;;;5212053;28;20183;-56
2022/05/14 09:25:31;;;;;;;11.73;4.07;;;22.30;47.60;;;;;;5217367;28;20491;-55
2022/05/14 09:28:08;;;;;;;7.33;2.40;;;22.40;47.90;;;;;;5209671;23;20926;-53
2022/05/14 09:30:43;;;;;;;8.07;2.60;;;22.50;47.50;;;;;;5233686;28;20452;-52
2022/05/14 09:33:27;;;;;;;6.50;3.60;;;22.20;46.60;;;;;;5232898;28;20424;-54
2022/05/14 09:35:59;;;;;;;5.20;2.47;;;22.00;46.90;;;;;;5241259;28;20486;-52
2022/05/14 09:38:30;;;;;;;14.37;4.10;;;21.50;47.60;;;;;;5231875;28;20449;-52
2022/05/14 09:41:21;;;;;;;6.93;3.40;;;21.60;47.10;;;;;;5218342;28;20437;-52
2022/05/14 09:43:54;;;;;;;11.27;4.17;;;21.50;47.60;;;;;;5211862;28;20433;-53
2022/05/14 09:46:32;;;;;;;17.37;5.43;;;21.10;46.80;;;;;;5212050;28;20444;-52
2022/05/14 09:49:06;;;;;;;11.37;4.10;;;20.60;47.40;;;;;;5210623;28;20958;-52
2022/05/14 09:52:16;;;;;;;10.43;3.00;;;20.50;47.70;;;;;;5211622;28;20464;-52
2022/05/14 09:54:50;;;;;;;17.40;3.10;;;20.10;46.40;;;;;;5211503;28;20442;-53
2022/05/14 09:57:31;;;;;;;13.60;2.90;;;20.00;46.40;;;;;;5217272;28;20433;-53
2022/05/14 10:00:21;;;;;;;9.63;3.13;;;20.00;45.40;;;;;;5228339;28;20521;-52
2022/05/14 10:03:06;;;;;;;8.17;2.73;;;19.90;45.40;;;;;;5226119;28;20425;-51
2022/05/14 10:06:10;;;;;;;7.63;3.23;;;20.00;46.30;;;;;;5217393;28;20527;-53
2022/05/14 10:08:46;;;;;;;9.70;3.10;;;20.20;46.20;;;;;;5216871;28;20488;-54
2022/05/14 10:11:28;;;;;;;7.37;2.83;;;20.10;45.10;;;;;;5220245;28;20429;-51
2022/05/14 10:14:13;;;;;;;9.43;3.27;;;20.10;45.50;;;;;;5220940;28;20475;-52
2022/05/14 10:17:08;;;;;;;11.90;3.00;;;19.90;43.70;;;;;;5217061;28;20527;-51
2022/05/14 10:20:06;;;;;;;10.00;3.10;;;19.70;44.00;;;;;;5214899;28;21015;-52
2022/05/14 10:29:36;;;;;;;13.50;4.83;;;19.50;45.80;;;;;;5216210;28;20520;-53
2022/05/14 10:32:11;;;;;;;14.73;5.50;;;19.90;45.30;;;;;;5233177;28;20446;-52
2022/05/14 10:34:53;;;;;;;25.77;10.00;;;20.20;44.40;;;;;;5219454;28;20435;-53
2022/05/14 10:37:31;;;;;;;8.27;5.47;;;20.10;43.90;;;;;;5218900;28;20789;-51
2022/05/14 10:40:13;;;;;;;17.43;7.13;;;19.90;44.30;;;;;;5219335;28;20460;-53
2022/05/14 10:42:53;;;;;;;10.10;3.07;;;19.80;44.90;;;;;;5209725;28;21019;-52
2022/05/14 10:45:34;;;;;;;17.30;3.03;;;20.10;44.60;;;;;;5219499;28;20445;-54
2022/05/14 10:48:37;;;;;;;6.63;3.43;;;20.30;44.30;;;;;;5218173;28;20476;-52
2022/05/14 10:51:12;;;;;;;44.33;8.20;;;20.10;44.20;;;;;;5219358;28;20551;-54
2022/05/14 10:53:44;;;;;;;21.73;12.27;;;20.30;45.00;;;;;;5218487;28;20449;-54
2022/05/14 10:56:33;;;;;;;14.23;6.53;;;20.60;45.20;;;;;;5220103;28;20498;-52
2022/05/14 10:59:12;;;;;;;10.63;6.23;;;20.60;44.30;;;;;;5222857;28;20458;-54
2022/05/14 11:02:02;;;;;;;8.70;3.40;;;20.70;44.30;;;;;;5213588;28;20466;-52
2022/05/14 11:04:38;;;;;;;15.90;3.17;;;20.30;44.60;;;;;;5225084;28;20453;-53
2022/05/14 11:07:29;;;;;;;15.37;7.20;;;20.30;45.10;;;;;;5218789;28;20421;-53
2022/05/14 11:10:20;;;;;;;7.83;4.90;;;20.40;45.60;;;;;;5220907;28;20789;-52
2022/05/14 11:12:51;;;;;;;12.13;5.20;;;20.70;45.60;;;;;;5220060;28;20486;-54
2022/05/14 11:15:28;;;;;;;29.10;11.73;;;20.80;44.90;;;;;;5222208;28;20469;-53
2022/05/14 11:18:12;;;;;;;10.27;5.60;;;21.00;45.10;;;;;;5216940;28;20824;-55
2022/05/14 11:20:59;;;;;;;7.23;4.70;;;21.20;44.50;;;;;;5212437;28;20438;-54
2022/05/14 11:23:29;;;;;;;9.60;3.67;;;21.20;44.00;;;;;;5219483;28;20434;-53
2022/05/14 11:26:06;;;;;;;5.60;2.47;;;21.00;44.20;;;;;;5215316;28;20513;-53
2022/05/14 11:28:37;;;;;;;6.70;3.23;;;20.80;44.10;;;;;;5225035;28;20218;-53
2022/05/14 11:31:25;;;;;;;7.47;2.90;;;20.60;44.80;;;;;;5221182;28;20849;-53
2022/05/14 11:33:59;;;;;;;11.57;3.50;;;20.50;45.00;;;;;;5222041;28;20481;-54
2022/05/14 11:36:34;;;;;;;19.07;3.00;;;20.30;45.40;;;;;;5222801;28;20553;-55
2022/05/14 11:39:10;;;;;;;12.40;3.27;;;20.40;45.50;;;;;;5222193;28;20456;-53
2022/05/14 11:41:41;;;;;;;5.47;2.60;;;20.20;45.50;;;;;;5218956;28;20775;-53
2022/05/14 11:44:11;;;;;;;3.30;3.00;;;20.10;46.50;;;;;;5234167;28;20457;-53
2022/05/14 11:46:48;;;;;;;16.63;3.80;;;20.00;46.70;;;;;;5224184;28;20202;-53
2022/05/14 11:49:39;;;;;;;4.30;2.83;;;20.10;46.70;;;;;;5207138;28;20543;-54
2022/05/14 11:52:36;;;;;;;13.23;3.60;;;20.20;46.70;;;;;;5222417;28;20770;-52
2022/05/14 11:55:20;;;;;;;11.73;3.87;;;20.10;46.10;;;;;;5217093;28;20462;-51
2022/05/14 11:58:05;;;;;;;15.87;8.13;;;20.10;46.60;;;;;;5216262;28;20915;-52
2022/05/14 12:00:36;;;;;;;11.30;5.87;;;20.00;46.70;;;;;;5221434;28;20972;-52
2022/05/14 12:03:15;;;;;;;12.73;5.50;;;20.20;46.80;;;;;;5225139;28;20736;-52
2022/05/14 12:06:08;;;;;;;8.33;2.77;;;20.50;46.30;;;;;;5214659;28;20464;-54
2022/05/14 12:09:04;;;;;;;10.90;3.10;;;20.60;45.50;;;;;;5216755;28;20475;-53
2022/05/14 12:12:00;;;;;;;3.63;2.53;;;20.70;45.10;;;;;;5215884;28;20873;-53
2022/05/14 12:14:34;;;;;;;7.70;3.87;;;20.70;44.90;;;;;;5215137;28;20435;-52
2022/05/14 12:17:08;;;;;;;4.80;2.97;;;20.60;45.60;;;;;;5219131;28;20473;-54
2022/05/14 12:19:40;;;;;;;7.50;2.60;;;20.50;46.00;;;;;;5221836;28;20572;-55
2022/05/14 12:22:29;;;;;;;14.10;4.50;;;20.60;46.30;;;;;;5213228;28;20430;-52
2022/05/14 12:25:05;;;;;;;18.97;5.50;;;20.60;45.50;;;;;;5219371;28;20443;-52
2022/05/14 12:27:47;;;;;;;14.00;4.20;;;20.40;45.50;;;;;;5212360;28;20784;-53
2022/05/14 12:33:17;;;;;;;9.30;3.50;;;20.20;46.30;;;;;;5216669;28;21020;-52
2022/05/14 12:35:56;;;;;;;8.33;3.30;;;20.00;46.30;;;;;;5219264;28;20816;-51
2022/05/14 12:38:34;;;;;;;9.60;3.47;;;20.20;47.20;;;;;;5214236;28;20449;-53
2022/05/14 12:41:15;;;;;;;8.30;3.53;;;20.50;46.80;;;;;;5219335;28;20487;-52
2022/05/14 12:43:46;;;;;;;13.50;4.27;;;20.50;45.80;;;;;;5216066;28;20520;-54
2022/05/14 12:46:19;;;;;;;15.83;4.80;;;20.70;45.80;;;;;;5217245;28;20529;-52
2022/05/14 12:48:52;;;;;;;15.00;4.23;;;20.70;44.80;;;;;;5215389;28;20202;-51
2022/05/14 12:51:25;;;;;;;12.03;4.20;;;20.90;45.30;;;;;;5210269;28;20433;-52
2022/05/14 12:53:56;;;;;;;16.53;8.43;;;21.20;45.30;;;;;;5224305;28;20449;-53
2022/05/14 12:56:31;;;;;;;33.03;11.83;;;21.40;45.10;;;;;;5211538;28;20939;-53
2022/05/14 12:59:01;;;;;;;23.43;12.17;;;21.20;44.90;;;;;;5225738;28;20281;-52
2022/05/14 13:01:33;;;;;;;11.80;4.77;;;21.20;44.50;;;;;;5217842;28;20514;-51
2022/05/14 13:04:08;;;;;;;9.20;2.97;;;21.20;44.50;;;;;;5218470;28;20178;-52
2022/05/14 13:06:44;;;;;;;7.30;3.47;;;21.10;44.50;;;;;;5218719;28;20523;-53
2022/05/14 13:09:22;;;;;;;6.40;3.40;;;21.20;44.70;;;;;;5218502;28;20909;-52
2022/05/14 13:11:54;;;;;;;18.13;8.80;;;21.30;44.60;;;;;;5216805;28;20440;-52
2022/05/14 13:14:32;;;;;;;11.40;6.50;;;21.00;44.90;;;;;;5214798;28;20811;-51
2022/05/14 13:17:06;;;;;;;10.30;3.03;;;21.00;44.90;;;;;;5198295;28;20769;-51
2022/05/14 13:19:42;;;;;;;6.27;2.30;;;21.00;44.70;;;;;;5218715;28;20519;-51
2022/05/14 13:22:29;;;;;;;5.40;2.80;;;21.20;45.30;;;;;;5220040;28;20448;-50
2022/05/14 13:25:04;;;;;;;9.23;3.63;;;21.40;45.20;;;;;;5211352;28;20896;-52
2022/05/14 13:27:36;;;;;;;9.93;3.17;;;21.50;44.70;;;;;;5214759;28;20937;-51
2022/05/14 13:30:18;;;;;;;10.27;3.03;;;21.40;44.70;;;;;;5215436;28;20533;-52
2022/05/14 13:32:49;;;;;;;13.27;2.97;;;21.20;44.90;;;;;;5221856;28;20452;-53
2022/05/14 13:38:16;;;;;;;13.63;3.00;;;21.30;45.00;;;;;;5211338;28;20273;-50
2022/05/14 13:40:49;;;;;;;8.23;4.80;;;21.10;44.30;;;;;;5222385;28;20414;-51
2022/05/14 13:43:34;;;;;;;38.83;17.90;;;21.10;44.30;;;;;;5220752;28;20843;-52
2022/05/14 13:46:26;;;;;;;11.77;8.10;;;21.20;44.80;;;;;;5216774;28;20507;-51
2022/05/14 13:48:57;;;;;;;14.03;4.53;;;21.40;44.70;;;;;;5217488;28;20547;-51
2022/05/14 13:51:32;;;;;;;7.07;3.57;;;21.50;44.90;;;;;;5220132;28;20525;-50
2022/05/14 13:54:08;;;;;;;20.20;7.40;;;21.40;44.40;;;;;;5216995;28;20182;-51